sensor_id;sensor_type;location;lat;lon;timestamp;pressure;altitude;pressure_sealevel;temperature;humidity
21828;BME280;11076;47.942;11.804;2023-05-24T00:04:22;94477.41;;;12.62;100.00
21828;BME280;11076;47.942;11.804;2023-05-24T00:09:26;94470.03;;;12.57;100.00
21828;BME280;11076;47.942;11.804;2023-05-24T00:14:28;94470.38;;;12.61;100.00
21828;BME280;11076;47.942;11.804;2023-05-24T00:19:31;94466.75;;;12.55;100.00
21828;BME280;11076;47.942;11.804;2023-05-24T00:24:33;94460.56;;;12.54;100.00
21828;BME280;11076;47.942;11.804;2023-05-24T00:29:36;94461.06;;;12.51;100.00
21828;BME280;11076;47.942;11.804;2023-05-24T00:34:38;94462.22;;;12.56;100.00
21828;BME280;11076;47.942;11.804;2023-05-24T00:39:40;94460.25;;;12.63;100.00
21828;BME280;11076;47.942;11.804;2023-05-24T00:44:44;94451.94;;;12.52;100.00
21828;BME280;11076;47.942;11.804;2023-05-24T00:49:47;94453.72;;;12.59;100.00
21828;BME280;11076;47.942;11.804;2023-05-24T00:54:50;94452.75;;;12.53;100.00
21828;BME280;11076;47.942;11.804;2023-05-24T00:59:53;94453.13;;;12.57;100.00
21828;BME280;11076;47.942;11.804;2023-05-24T01:04:57;94461.38;;;12.55;100.00
21828;BME280;11076;47.942;11.804;2023-05-24T01:15:15;94452.94;;;12.70;100.00
21828;BME280;11076;47.942;11.804;2023-05-24T01:20:22;94452.56;;;12.66;100.00
21828;BME280;11076;47.942;11.804;2023-05-24T01:25:45;94452.75;;;12.53;100.00
21828;BME280;11076;47.942;11.804;2023-05-24T01:30:49;94447.59;;;12.40;100.00
21828;BME280;11076;47.942;11.804;2023-05-24T01:35:52;94448.97;;;12.30;100.00
21828;BME280;11076;47.942;11.804;2023-05-24T01:41:00;94449.69;;;12.38;100.00
21828;BME280;11076;47.942;11.804;2023-05-24T01:46:16;94449.22;;;12.41;100.00
21828;BME280;11076;47.942;11.804;2023-05-24T01:51:22;94448.69;;;12.50;100.00
21828;BME280;11076;47.942;11.804;2023-05-24T01:56:26;94450.44;;;12.57;100.00
21828;BME280;11076;47.942;11.804;2023-05-24T02:01:30;94448.09;;;12.48;100.00
21828;BME280;11076;47.942;11.804;2023-05-24T02:06:33;94446.19;;;12.37;100.00
21828;BME280;11076;47.942;11.804;2023-05-24T02:11:35;94442.78;;;12.30;100.00
21828;BME280;11076;47.942;11.804;2023-05-24T02:16:37;94452.78;;;12.23;100.00
21828;BME280;11076;47.942;11.804;2023-05-24T02:21:43;94445.47;;;12.30;100.00
21828;BME280;11076;47.942;11.804;2023-05-24T02:26:46;94449.41;;;12.27;100.00
21828;BME280;11076;47.942;11.804;2023-05-24T02:31:48;94448.69;;;12.20;100.00
21828;BME280;11076;47.942;11.804;2023-05-24T02:36:57;94445.53;;;12.23;100.00
21828;BME280;11076;47.942;11.804;2023-05-24T02:42:00;94438.78;;;12.21;100.00
21828;BME280;11076;47.942;11.804;2023-05-24T02:47:03;94443.22;;;12.27;100.00
21828;BME280;11076;47.942;11.804;2023-05-24T02:52:05;94442.44;;;12.26;100.00
21828;BME280;11076;47.942;11.804;2023-05-24T02:57:08;94441.47;;;12.21;100.00
21828;BME280;11076;47.942;11.804;2023-05-24T03:02:10;94436.31;;;12.19;100.00
21828;BME280;11076;47.942;11.804;2023-05-24T03:07:15;94440.06;;;12.18;100.00
21828;BME280;11076;47.942;11.804;2023-05-24T03:12:18;94440.06;;;12.18;100.00
21828;BME280;11076;47.942;11.804;2023-05-24T03:17:20;94444.03;;;12.27;100.00
21828;BME280;11076;47.942;11.804;2023-05-24T03:22:23;94438.69;;;12.27;100.00
21828;BME280;11076;47.942;11.804;2023-05-24T03:27:25;94441.94;;;12.18;100.00
21828;BME280;11076;47.942;11.804;2023-05-24T03:32:28;94445.22;;;12.01;100.00
21828;BME280;11076;47.942;11.804;2023-05-24T03:37:31;94440.94;;;11.82;100.00
21828;BME280;11076;47.942;11.804;2023-05-24T03:42:34;94445.69;;;11.98;100.00
21828;BME280;11076;47.942;11.804;2023-05-24T03:47:36;94445.91;;;11.78;100.00
21828;BME280;11076;47.942;11.804;2023-05-24T03:52:39;94446.75;;;11.60;100.00
21828;BME280;11076;47.942;11.804;2023-05-24T03:57:41;94444.34;;;11.70;100.00
21828;BME280;11076;47.942;11.804;2023-05-24T04:02:44;94456.84;;;11.40;100.00
21828;BME280;11076;47.942;11.804;2023-05-24T04:07:47;94454.22;;;11.33;100.00
21828;BME280;11076;47.942;11.804;2023-05-24T04:12:49;94460.41;;;11.33;100.00
21828;BME280;11076;47.942;11.804;2023-05-24T04:17:51;94468.22;;;11.35;100.00
21828;BME280;11076;47.942;11.804;2023-05-24T04:22:56;94455.03;;;11.33;100.00
21828;BME280;11076;47.942;11.804;2023-05-24T04:27:58;94463.97;;;11.46;100.00
21828;BME280;11076;47.942;11.804;2023-05-24T04:33:01;94467.69;;;11.45;100.00
21828;BME280;11076;47.942;11.804;2023-05-24T04:38:04;94467.63;;;11.51;100.00
21828;BME280;11076;47.942;11.804;2023-05-24T04:43:07;94462.78;;;11.79;100.00
21828;BME280;11076;47.942;11.804;2023-05-24T04:48:11;94464.88;;;11.77;100.00
21828;BME280;11076;47.942;11.804;2023-05-24T04:53:14;94470.75;;;11.67;100.00
21828;BME280;11076;47.942;11.804;2023-05-24T04:58:16;94472.44;;;11.80;100.00
21828;BME280;11076;47.942;11.804;2023-05-24T05:03:19;94470.84;;;11.97;100.00
21828;BME280;11076;47.942;11.804;2023-05-24T05:08:21;94474.84;;;12.06;100.00
21828;BME280;11076;47.942;11.804;2023-05-24T05:13:24;94468.63;;;11.94;100.00
21828;BME280;11076;47.942;11.804;2023-05-24T05:18:26;94462.50;;;11.87;100.00
21828;BME280;11076;47.942;11.804;2023-05-24T05:23:29;94472.63;;;11.66;100.00
21828;BME280;11076;47.942;11.804;2023-05-24T05:28:32;94479.31;;;11.75;100.00
21828;BME280;11076;47.942;11.804;2023-05-24T05:33:34;94475.00;;;11.74;100.00
21828;BME280;11076;47.942;11.804;2023-05-24T05:38:37;94476.63;;;11.75;100.00
21828;BME280;11076;47.942;11.804;2023-05-24T05:43:39;94466.44;;;11.84;100.00
21828;BME280;11076;47.942;11.804;2023-05-24T05:48:42;94480.03;;;11.46;100.00
21828;BME280;11076;47.942;11.804;2023-05-24T05:53:46;94479.13;;;11.33;100.00
21828;BME280;11076;47.942;11.804;2023-05-24T05:58:48;94471.41;;;11.44;100.00
21828;BME280;11076;47.942;11.804;2023-05-24T06:03:50;94477.44;;;11.58;100.00
21828;BME280;11076;47.942;11.804;2023-05-24T06:08:53;94479.31;;;11.75;100.00
21828;BME280;11076;47.942;11.804;2023-05-24T06:13:55;94473.50;;;12.16;100.00
21828;BME280;11076;47.942;11.804;2023-05-24T06:18:58;94483.75;;;12.19;100.00
21828;BME280;11076;47.942;11.804;2023-05-24T06:24:07;94480.94;;;12.13;100.00
21828;BME280;11076;47.942;11.804;2023-05-24T06:29:10;94483.31;;;12.22;100.00
21828;BME280;11076;47.942;11.804;2023-05-24T06:34:13;94485.75;;;12.23;100.00
21828;BME280;11076;47.942;11.804;2023-05-24T06:39:18;94481.22;;;12.54;100.00
21828;BME280;11076;47.942;11.804;2023-05-24T06:44:21;94478.09;;;12.69;100.00
21828;BME280;11076;47.942;11.804;2023-05-24T06:49:26;94481.59;;;12.58;100.00
21828;BME280;11076;47.942;11.804;2023-05-24T06:54:28;94486.31;;;12.44;100.00
21828;BME280;11076;47.942;11.804;2023-05-24T06:59:31;94477.19;;;12.75;100.00
21828;BME280;11076;47.942;11.804;2023-05-24T07:04:33;94481.94;;;13.15;100.00
21828;BME280;11076;47.942;11.804;2023-05-24T07:09:36;94473.50;;;13.00;100.00
21828;BME280;11076;47.942;11.804;2023-05-24T07:14:38;94479.59;;;13.30;100.00
21828;BME280;11076;47.942;11.804;2023-05-24T07:19:41;94487.84;;;13.29;100.00
21828;BME280;11076;47.942;11.804;2023-05-24T07:24:43;94486.84;;;13.42;100.00
21828;BME280;11076;47.942;11.804;2023-05-24T07:29:45;94481.94;;;13.62;100.00
21828;BME280;11076;47.942;11.804;2023-05-24T07:34:49;94479.41;;;13.96;100.00
21828;BME280;11076;47.942;11.804;2023-05-24T07:39:51;94476.47;;;14.09;100.00
21828;BME280;11076;47.942;11.804;2023-05-24T07:44:54;94483.31;;;13.77;97.28
21828;BME280;11076;47.942;11.804;2023-05-24T07:49:56;94490.53;;;13.88;98.45
21828;BME280;11076;47.942;11.804;2023-05-24T07:54:59;94489.13;;;13.97;98.65
21828;BME280;11076;47.942;11.804;2023-05-24T08:00:02;94487.31;;;13.62;98.19
21828;BME280;11076;47.942;11.804;2023-05-24T08:05:13;94492.22;;;13.53;99.03
21828;BME280;11076;47.942;11.804;2023-05-24T08:10:16;94492.81;;;13.67;98.28
21828;BME280;11076;47.942;11.804;2023-05-24T08:15:19;94482.59;;;14.33;97.87
21828;BME280;11076;47.942;11.804;2023-05-24T08:20:22;94479.59;;;14.59;94.60
21828;BME280;11076;47.942;11.804;2023-05-24T08:25:24;94476.78;;;14.82;95.38
21828;BME280;11076;47.942;11.804;2023-05-24T08:30:28;94478.34;;;15.12;91.81
21828;BME280;11076;47.942;11.804;2023-05-24T08:35:31;94479.56;;;15.38;88.66
21828;BME280;11076;47.942;11.804;2023-05-24T08:40:34;94471.06;;;15.85;89.41
21828;BME280;11076;47.942;11.804;2023-05-24T08:45:37;94476.16;;;15.65;86.83
21828;BME280;11076;47.942;11.804;2023-05-24T08:50:41;94478.34;;;15.46;87.95
21828;BME280;11076;47.942;11.804;2023-05-24T08:55:44;94479.66;;;15.26;88.38
21828;BME280;11076;47.942;11.804;2023-05-24T09:00:47;94487.72;;;15.26;88.13
21828;BME280;11076;47.942;11.804;2023-05-24T09:05:50;94482.25;;;15.38;88.47
21828;BME280;11076;47.942;11.804;2023-05-24T09:10:54;94487.56;;;15.50;88.34
21828;BME280;11076;47.942;11.804;2023-05-24T09:15:58;94478.66;;;15.32;87.32
21828;BME280;11076;47.942;11.804;2023-05-24T09:21:01;94481.91;;;15.51;88.16
21828;BME280;11076;47.942;11.804;2023-05-24T09:26:07;94486.47;;;15.68;86.74
21828;BME280;11076;47.942;11.804;2023-05-24T09:31:11;94487.59;;;15.72;85.80
21828;BME280;11076;47.942;11.804;2023-05-24T09:36:16;94498.91;;;15.35;86.68
21828;BME280;11076;47.942;11.804;2023-05-24T09:41:19;94505.19;;;15.07;87.82
21828;BME280;11076;47.942;11.804;2023-05-24T09:46:21;94504.22;;;15.13;87.94
21828;BME280;11076;47.942;11.804;2023-05-24T09:51:24;94505.81;;;14.97;86.78
21828;BME280;11076;47.942;11.804;2023-05-24T09:56:29;94501.19;;;15.09;85.72
21828;BME280;11076;47.942;11.804;2023-05-24T10:01:32;94499.56;;;15.25;84.40
21828;BME280;11076;47.942;11.804;2023-05-24T10:06:35;94504.78;;;15.15;80.25
21828;BME280;11076;47.942;11.804;2023-05-24T10:11:41;94502.41;;;14.56;82.72
21828;BME280;11076;47.942;11.804;2023-05-24T10:16:44;94508.56;;;14.68;84.34
21828;BME280;11076;47.942;11.804;2023-05-24T10:21:48;94509.72;;;14.73;85.30
21828;BME280;11076;47.942;11.804;2023-05-24T10:26:51;94518.03;;;14.71;86.16
21828;BME280;11076;47.942;11.804;2023-05-24T10:31:55;94518.03;;;14.71;86.90
21828;BME280;11076;47.942;11.804;2023-05-24T10:36:58;94524.50;;;14.58;86.49
21828;BME280;11076;47.942;11.804;2023-05-24T10:42:02;94522.69;;;14.35;88.19
21828;BME280;11076;47.942;11.804;2023-05-24T10:47:12;94522.47;;;14.37;89.07
21828;BME280;11076;47.942;11.804;2023-05-24T10:52:14;94528.03;;;14.59;88.26
21828;BME280;11076;47.942;11.804;2023-05-24T10:57:21;94528.38;;;14.79;88.33
21828;BME280;11076;47.942;11.804;2023-05-24T11:02:33;94526.56;;;14.97;88.50
21828;BME280;11076;47.942;11.804;2023-05-24T11:07:40;94524.38;;;14.65;88.23
21828;BME280;11076;47.942;11.804;2023-05-24T11:12:56;94524.44;;;14.70;88.65
21828;BME280;11076;47.942;11.804;2023-05-24T11:23:11;94517.63;;;14.79;88.49
21828;BME280;11076;47.942;11.804;2023-05-24T11:28:13;94515.75;;;14.80;88.46
21828;BME280;11076;47.942;11.804;2023-05-24T11:33:21;94519.06;;;14.99;87.50
21828;BME280;11076;47.942;11.804;2023-05-24T11:38:24;94518.38;;;14.91;86.44
21828;BME280;11076;47.942;11.804;2023-05-24T11:43:29;94527.41;;;14.85;88.23
21828;BME280;11076;47.942;11.804;2023-05-24T11:48:32;94526.47;;;14.63;87.09
21828;BME280;11076;47.942;11.804;2023-05-24T11:53:34;94522.16;;;14.62;85.97
21828;BME280;11076;47.942;11.804;2023-05-24T11:58:49;94518.31;;;14.86;87.25
21828;BME280;11076;47.942;11.804;2023-05-24T12:03:54;94520.88;;;15.10;87.18
21828;BME280;11076;47.942;11.804;2023-05-24T12:08:56;94528.03;;;15.55;87.45
21828;BME280;11076;47.942;11.804;2023-05-24T12:13:59;94525.00;;;15.68;84.79
21828;BME280;11076;47.942;11.804;2023-05-24T12:19:01;94527.13;;;15.66;85.05
21828;BME280;11076;47.942;11.804;2023-05-24T12:24:10;94517.84;;;15.74;83.38
21828;BME280;11076;47.942;11.804;2023-05-24T12:29:14;94517.78;;;15.91;84.34
21828;BME280;11076;47.942;11.804;2023-05-24T12:34:18;94520.31;;;15.98;81.73
21828;BME280;11076;47.942;11.804;2023-05-24T12:39:26;94528.69;;;15.62;80.47
21828;BME280;11076;47.942;11.804;2023-05-24T12:44:37;94527.63;;;15.13;81.96
21828;BME280;11076;47.942;11.804;2023-05-24T12:49:39;94523.88;;;15.30;81.70
21828;BME280;11076;47.942;11.804;2023-05-24T12:54:42;94527.94;;;15.67;79.07
21828;BME280;11076;47.942;11.804;2023-05-24T12:59:44;94525.66;;;16.15;80.78
21828;BME280;11076;47.942;11.804;2023-05-24T13:04:47;94525.53;;;16.26;78.48
21828;BME280;11076;47.942;11.804;2023-05-24T13:09:49;94530.00;;;16.16;74.90
21828;BME280;11076;47.942;11.804;2023-05-24T13:14:52;94529.00;;;15.83;70.27
21828;BME280;11076;47.942;11.804;2023-05-24T13:20:00;94537.59;;;15.80;72.76
21828;BME280;11076;47.942;11.804;2023-05-24T13:25:03;94529.75;;;15.78;73.05
21828;BME280;11076;47.942;11.804;2023-05-24T13:30:06;94525.84;;;16.30;72.35
21828;BME280;11076;47.942;11.804;2023-05-24T13:35:09;94520.69;;;16.50;71.98
21828;BME280;11076;47.942;11.804;2023-05-24T13:40:12;94525.03;;;16.52;69.62
21828;BME280;11076;47.942;11.804;2023-05-24T13:45:15;94527.09;;;16.44;71.69
21828;BME280;11076;47.942;11.804;2023-05-24T13:50:17;94523.34;;;16.45;72.17
21828;BME280;11076;47.942;11.804;2023-05-24T13:55:22;94531.78;;;16.76;71.69
21828;BME280;11076;47.942;11.804;2023-05-24T14:00:25;94533.75;;;16.15;70.50
21828;BME280;11076;47.942;11.804;2023-05-24T14:05:27;94530.84;;;15.99;72.84
21828;BME280;11076;47.942;11.804;2023-05-24T14:10:35;94537.28;;;15.76;72.93
21828;BME280;11076;47.942;11.804;2023-05-24T14:15:38;94545.66;;;15.63;73.63
21828;BME280;11076;47.942;11.804;2023-05-24T14:20:41;94548.59;;;15.27;73.07
21828;BME280;11076;47.942;11.804;2023-05-24T14:25:43;94537.91;;;15.32;73.97
21828;BME280;11076;47.942;11.804;2023-05-24T14:30:48;94542.66;;;15.25;73.54
21828;BME280;11076;47.942;11.804;2023-05-24T14:35:50;94541.25;;;15.57;74.06
21828;BME280;11076;47.942;11.804;2023-05-24T14:40:52;94542.97;;;15.63;73.65
21828;BME280;11076;47.942;11.804;2023-05-24T14:45:58;94536.63;;;15.52;71.03
21828;BME280;11076;47.942;11.804;2023-05-24T14:51:00;94528.88;;;16.12;71.38
21828;BME280;11076;47.942;11.804;2023-05-24T14:56:03;94537.81;;;16.39;70.84
21828;BME280;11076;47.942;11.804;2023-05-24T15:01:07;94530.28;;;16.19;68.84
21828;BME280;11076;47.942;11.804;2023-05-24T15:06:09;94525.09;;;16.13;70.26
21828;BME280;11076;47.942;11.804;2023-05-24T15:11:12;94528.53;;;15.52;67.84
21828;BME280;11076;47.942;11.804;2023-05-24T15:16:14;94525.50;;;15.31;68.68
21828;BME280;11076;47.942;11.804;2023-05-24T15:21:20;94529.09;;;15.54;70.50
21828;BME280;11076;47.942;11.804;2023-05-24T15:26:22;94535.38;;;15.43;70.56
21828;BME280;11076;47.942;11.804;2023-05-24T15:31:25;94517.41;;;14.98;70.72
21828;BME280;11076;47.942;11.804;2023-05-24T15:36:28;94526.31;;;15.15;71.15
21828;BME280;11076;47.942;11.804;2023-05-24T15:41:30;94521.50;;;15.17;70.16
21828;BME280;11076;47.942;11.804;2023-05-24T15:46:35;94517.44;;;14.69;70.35
21828;BME280;11076;47.942;11.804;2023-05-24T15:51:38;94516.59;;;14.80;72.11
21828;BME280;11076;47.942;11.804;2023-05-24T15:56:43;94515.53;;;14.41;72.78
21828;BME280;11076;47.942;11.804;2023-05-24T16:01:46;94515.53;;;14.41;71.66
21828;BME280;11076;47.942;11.804;2023-05-24T16:06:48;94510.34;;;14.51;71.77
21828;BME280;11076;47.942;11.804;2023-05-24T16:11:51;94509.25;;;14.64;71.35
21828;BME280;11076;47.942;11.804;2023-05-24T16:16:53;94507.50;;;14.69;72.82
21828;BME280;11076;47.942;11.804;2023-05-24T16:21:57;94508.13;;;14.60;73.27
21828;BME280;11076;47.942;11.804;2023-05-24T16:26:59;94509.13;;;14.70;73.48
21828;BME280;11076;47.942;11.804;2023-05-24T16:32:03;94507.66;;;14.80;73.37
21828;BME280;11076;47.942;11.804;2023-05-24T16:37:06;94505.22;;;14.49;73.15
21828;BME280;11076;47.942;11.804;2023-05-24T16:42:08;94501.75;;;14.37;74.40
21828;BME280;11076;47.942;11.804;2023-05-24T16:47:11;94499.53;;;14.34;75.19
21828;BME280;11076;47.942;11.804;2023-05-24T16:52:13;94506.47;;;14.18;75.78
21828;BME280;11076;47.942;11.804;2023-05-24T16:57:16;94498.19;;;14.20;76.22
21828;BME280;11076;47.942;11.804;2023-05-24T17:02:18;94509.28;;;14.23;77.01
21828;BME280;11076;47.942;11.804;2023-05-24T17:07:20;94508.78;;;14.26;79.24
21828;BME280;11076;47.942;11.804;2023-05-24T17:12:23;94513.66;;;14.12;83.18
21828;BME280;11076;47.942;11.804;2023-05-24T17:17:25;94513.66;;;14.12;84.75
21828;BME280;11076;47.942;11.804;2023-05-24T17:22:28;94519.75;;;13.96;87.03
21828;BME280;11076;47.942;11.804;2023-05-24T17:27:30;94512.16;;;13.93;88.44
21828;BME280;11076;47.942;11.804;2023-05-24T17:32:33;94510.88;;;13.72;90.38
21828;BME280;11076;47.942;11.804;2023-05-24T17:37:35;94510.81;;;13.55;92.19
21828;BME280;11076;47.942;11.804;2023-05-24T17:42:38;94514.16;;;13.50;93.19
21828;BME280;11076;47.942;11.804;2023-05-24T17:47:43;94511.38;;;13.33;94.83
21828;BME280;11076;47.942;11.804;2023-05-24T17:52:45;94510.38;;;13.16;96.32
21828;BME280;11076;47.942;11.804;2023-05-24T17:57:49;94520.88;;;13.06;97.02
21828;BME280;11076;47.942;11.804;2023-05-24T18:02:51;94531.72;;;12.99;97.30
21828;BME280;11076;47.942;11.804;2023-05-24T18:07:54;94534.50;;;12.92;96.49
21828;BME280;11076;47.942;11.804;2023-05-24T18:12:56;94541.69;;;12.80;96.50
21828;BME280;11076;47.942;11.804;2023-05-24T18:17:59;94556.63;;;12.76;96.28
21828;BME280;11076;47.942;11.804;2023-05-24T18:23:02;94557.38;;;12.65;96.56
21828;BME280;11076;47.942;11.804;2023-05-24T18:28:04;94551.75;;;12.54;97.07
21828;BME280;11076;47.942;11.804;2023-05-24T18:33:07;94563.81;;;12.45;97.83
21828;BME280;11076;47.942;11.804;2023-05-24T18:38:10;94558.03;;;12.48;98.06
21828;BME280;11076;47.942;11.804;2023-05-24T18:43:12;94552.66;;;12.48;98.08
21828;BME280;11076;47.942;11.804;2023-05-24T18:48:14;94547.03;;;12.38;98.68
21828;BME280;11076;47.942;11.804;2023-05-24T18:53:17;94546.16;;;12.26;98.99
21828;BME280;11076;47.942;11.804;2023-05-24T18:58:19;94553.25;;;12.02;100.00
21828;BME280;11076;47.942;11.804;2023-05-24T19:03:23;94546.41;;;11.81;100.00
21828;BME280;11076;47.942;11.804;2023-05-24T19:08:25;94558.59;;;11.58;100.00
21828;BME280;11076;47.942;11.804;2023-05-24T19:13:28;94561.00;;;11.41;100.00
21828;BME280;11076;47.942;11.804;2023-05-24T19:18:30;94562.38;;;11.25;100.00
21828;BME280;11076;47.942;11.804;2023-05-24T19:23:33;94572.16;;;11.13;100.00
21828;BME280;11076;47.942;11.804;2023-05-24T19:28:35;94567.50;;;11.02;100.00
21828;BME280;11076;47.942;11.804;2023-05-24T19:33:41;94565.53;;;10.90;100.00
21828;BME280;11076;47.942;11.804;2023-05-24T19:38:49;94568.84;;;10.86;100.00
21828;BME280;11076;47.942;11.804;2023-05-24T19:43:54;94577.38;;;10.69;100.00
21828;BME280;11076;47.942;11.804;2023-05-24T19:48:59;94596.28;;;10.74;100.00
21828;BME280;11076;47.942;11.804;2023-05-24T19:54:02;94589.97;;;10.94;100.00
21828;BME280;11076;47.942;11.804;2023-05-24T19:59:04;94589.03;;;11.13;100.00
21828;BME280;11076;47.942;11.804;2023-05-24T20:04:07;94577.84;;;11.23;100.00
21828;BME280;11076;47.942;11.804;2023-05-24T20:09:09;94579.66;;;11.29;100.00
21828;BME280;11076;47.942;11.804;2023-05-24T20:14:12;94583.84;;;11.44;100.00
21828;BME280;11076;47.942;11.804;2023-05-24T20:19:14;94585.72;;;11.43;100.00
21828;BME280;11076;47.942;11.804;2023-05-24T20:24:16;94584.69;;;11.44;100.00
21828;BME280;11076;47.942;11.804;2023-05-24T20:29:19;94578.66;;;11.49;100.00
21828;BME280;11076;47.942;11.804;2023-05-24T20:34:21;94573.03;;;11.57;100.00
21828;BME280;11076;47.942;11.804;2023-05-24T20:39:24;94570.19;;;11.52;100.00
21828;BME280;11076;47.942;11.804;2023-05-24T20:44:26;94561.13;;;11.53;100.00
21828;BME280;11076;47.942;11.804;2023-05-24T20:49:29;94570.19;;;11.52;100.00
21828;BME280;11076;47.942;11.804;2023-05-24T20:54:31;94582.16;;;11.49;100.00
21828;BME280;11076;47.942;11.804;2023-05-24T20:59:34;94575.66;;;11.39;100.00
21828;BME280;11076;47.942;11.804;2023-05-24T21:04:36;94583.19;;;11.23;100.00
21828;BME280;11076;47.942;11.804;2023-05-24T21:09:39;94580.63;;;11.35;100.00
21828;BME280;11076;47.942;11.804;2023-05-24T21:14:42;94599.56;;;11.33;100.00
21828;BME280;11076;47.942;11.804;2023-05-24T21:19:45;94601.31;;;11.21;100.00
21828;BME280;11076;47.942;11.804;2023-05-24T21:24:47;94598.66;;;11.21;100.00
21828;BME280;11076;47.942;11.804;2023-05-24T21:29:49;94594.94;;;11.22;100.00
21828;BME280;11076;47.942;11.804;2023-05-24T21:34:52;94599.91;;;11.19;100.00
21828;BME280;11076;47.942;11.804;2023-05-24T21:39:54;94598.81;;;11.26;100.00
21828;BME280;11076;47.942;11.804;2023-05-24T21:44:57;94605.19;;;11.25;100.00
21828;BME280;11076;47.942;11.804;2023-05-24T21:49:59;94609.97;;;11.23;100.00
21828;BME280;11076;47.942;11.804;2023-05-24T21:55:02;94605.88;;;11.21;100.00
21828;BME280;11076;47.942;11.804;2023-05-24T22:00:05;94615.31;;;11.23;100.00
21828;BME280;11076;47.942;11.804;2023-05-24T22:05:07;94617.31;;;11.28;100.00
21828;BME280;11076;47.942;11.804;2023-05-24T22:10:10;94605.19;;;11.25;100.00
21828;BME280;11076;47.942;11.804;2023-05-24T22:15:13;94613.69;;;11.22;100.00
21828;BME280;11076;47.942;11.804;2023-05-24T22:20:16;94623.19;;;11.18;100.00
21828;BME280;11076;47.942;11.804;2023-05-24T22:25:19;94605.09;;;11.13;100.00
21828;BME280;11076;47.942;11.804;2023-05-24T22:30:22;94612.50;;;11.11;100.00
21828;BME280;11076;47.942;11.804;2023-05-24T22:35:25;94618.91;;;11.10;100.00
21828;BME280;11076;47.942;11.804;2023-05-24T22:40:27;94613.22;;;11.00;100.00
21828;BME280;11076;47.942;11.804;2023-05-24T22:45:30;94614.25;;;10.99;100.00
21828;BME280;11076;47.942;11.804;2023-05-24T22:50:32;94617.59;;;10.88;100.00
21828;BME280;11076;47.942;11.804;2023-05-24T22:55:35;94602.38;;;10.88;100.00
21828;BME280;11076;47.942;11.804;2023-05-24T23:00:37;94597.88;;;10.82;100.00
21828;BME280;11076;47.942;11.804;2023-05-24T23:05:39;94603.66;;;10.79;100.00
21828;BME280;11076;47.942;11.804;2023-05-24T23:10:42;94609.81;;;10.80;100.00
21828;BME280;11076;47.942;11.804;2023-05-24T23:15:47;94597.09;;;10.75;100.00
21828;BME280;11076;47.942;11.804;2023-05-24T23:20:50;94594.25;;;10.70;100.00
21828;BME280;11076;47.942;11.804;2023-05-24T23:25:55;94589.75;;;10.64;100.00
21828;BME280;11076;47.942;11.804;2023-05-24T23:30:57;94592.88;;;10.61;100.00
21828;BME280;11076;47.942;11.804;2023-05-24T23:36:00;94599.25;;;10.60;100.00
21828;BME280;11076;47.942;11.804;2023-05-24T23:41:02;94595.97;;;10.58;100.00
21828;BME280;11076;47.942;11.804;2023-05-24T23:46:05;94601.75;;;10.48;100.00
21828;BME280;11076;47.942;11.804;2023-05-24T23:51:09;94598.13;;;10.35;100.00
21828;BME280;11076;47.942;11.804;2023-05-24T23:56:11;94594.84;;;10.27;100.00
